sensor_id;sensor_type;location;lat;lon;timestamp;P1;durP1;ratioP1;P2;durP2;ratioP2
63444;SDS011;49573;47.682;9.170;2023-08-20T00:03:57;8.65;;;5.75;;
63444;SDS011;49573;47.682;9.170;2023-08-20T00:09:31;8.77;;;5.80;;
63444;SDS011;49573;47.682;9.170;2023-08-20T00:12:18;6.57;;;5.72;;
63444;SDS011;49573;47.682;9.170;2023-08-20T00:15:06;8.48;;;5.57;;
63444;SDS011;49573;47.682;9.170;2023-08-20T00:17:53;10.60;;;6.03;;
63444;SDS011;49573;47.682;9.170;2023-08-20T00:20:40;6.95;;;5.50;;
63444;SDS011;49573;47.682;9.170;2023-08-20T00:23:27;7.85;;;5.40;;
63444;SDS011;49573;47.682;9.170;2023-08-20T00:26:14;9.85;;;6.05;;
63444;SDS011;49573;47.682;9.170;2023-08-20T00:29:00;7.72;;;5.55;;
63444;SDS011;49573;47.682;9.170;2023-08-20T00:31:48;8.13;;;6.00;;
63444;SDS011;49573;47.682;9.170;2023-08-20T00:34:34;7.85;;;5.32;;
63444;SDS011;49573;47.682;9.170;2023-08-20T00:37:20;7.68;;;5.50;;
63444;SDS011;49573;47.682;9.170;2023-08-20T00:40:06;8.82;;;5.90;;
63444;SDS011;49573;47.682;9.170;2023-08-20T00:42:55;8.05;;;5.85;;
63444;SDS011;49573;47.682;9.170;2023-08-20T00:45:41;7.57;;;5.97;;
63444;SDS011;49573;47.682;9.170;2023-08-20T00:48:29;7.65;;;5.80;;
63444;SDS011;49573;47.682;9.170;2023-08-20T00:51:15;11.00;;;6.10;;
63444;SDS011;49573;47.682;9.170;2023-08-20T00:54:02;8.52;;;5.90;;
63444;SDS011;49573;47.682;9.170;2023-08-20T00:56:49;8.57;;;5.47;;
63444;SDS011;49573;47.682;9.170;2023-08-20T01:02:22;8.52;;;5.65;;
63444;SDS011;49573;47.682;9.170;2023-08-20T01:05:10;8.45;;;5.88;;
63444;SDS011;49573;47.682;9.170;2023-08-20T01:07:58;9.70;;;5.80;;
63444;SDS011;49573;47.682;9.170;2023-08-20T01:11:04;7.45;;;5.53;;
63444;SDS011;49573;47.682;9.170;2023-08-20T01:13:56;8.82;;;5.72;;
63444;SDS011;49573;47.682;9.170;2023-08-20T01:16:43;9.02;;;5.78;;
63444;SDS011;49573;47.682;9.170;2023-08-20T01:19:31;7.05;;;5.72;;
63444;SDS011;49573;47.682;9.170;2023-08-20T01:22:43;9.55;;;5.70;;
63444;SDS011;49573;47.682;9.170;2023-08-20T01:25:51;7.90;;;5.82;;
63444;SDS011;49573;47.682;9.170;2023-08-20T01:28:53;6.95;;;5.50;;
63444;SDS011;49573;47.682;9.170;2023-08-20T01:31:40;7.10;;;5.90;;
63444;SDS011;49573;47.682;9.170;2023-08-20T01:34:27;8.93;;;6.03;;
63444;SDS011;49573;47.682;9.170;2023-08-20T01:37:13;16.98;;;6.65;;
63444;SDS011;49573;47.682;9.170;2023-08-20T01:39:59;15.70;;;6.25;;
63444;SDS011;49573;47.682;9.170;2023-08-20T01:42:45;7.25;;;6.00;;
63444;SDS011;49573;47.682;9.170;2023-08-20T01:45:32;8.60;;;6.28;;
63444;SDS011;49573;47.682;9.170;2023-08-20T01:48:19;8.85;;;6.13;;
63444;SDS011;49573;47.682;9.170;2023-08-20T01:51:05;9.05;;;5.88;;
63444;SDS011;49573;47.682;9.170;2023-08-20T01:53:51;8.13;;;6.22;;
63444;SDS011;49573;47.682;9.170;2023-08-20T01:56:37;7.63;;;6.35;;
63444;SDS011;49573;47.682;9.170;2023-08-20T01:59:23;10.48;;;6.10;;
63444;SDS011;49573;47.682;9.170;2023-08-20T02:02:11;8.73;;;6.22;;
63444;SDS011;49573;47.682;9.170;2023-08-20T02:04:57;12.43;;;6.72;;
63444;SDS011;49573;47.682;9.170;2023-08-20T02:07:43;9.40;;;6.60;;
63444;SDS011;49573;47.682;9.170;2023-08-20T02:10:29;6.80;;;6.10;;
63444;SDS011;49573;47.682;9.170;2023-08-20T02:13:15;8.05;;;6.32;;
63444;SDS011;49573;47.682;9.170;2023-08-20T02:16:02;7.28;;;5.90;;
63444;SDS011;49573;47.682;9.170;2023-08-20T02:18:50;9.48;;;6.35;;
63444;SDS011;49573;47.682;9.170;2023-08-20T02:21:36;8.07;;;6.28;;
63444;SDS011;49573;47.682;9.170;2023-08-20T02:24:23;8.63;;;6.03;;
63444;SDS011;49573;47.682;9.170;2023-08-20T02:27:09;8.10;;;6.10;;
63444;SDS011;49573;47.682;9.170;2023-08-20T02:29:55;7.55;;;6.40;;
63444;SDS011;49573;47.682;9.170;2023-08-20T02:32:41;9.20;;;6.65;;
63444;SDS011;49573;47.682;9.170;2023-08-20T02:35:28;7.72;;;6.57;;
63444;SDS011;49573;47.682;9.170;2023-08-20T02:38:15;7.95;;;5.88;;
63444;SDS011;49573;47.682;9.170;2023-08-20T02:41:02;9.65;;;6.03;;
63444;SDS011;49573;47.682;9.170;2023-08-20T02:43:50;10.23;;;6.10;;
63444;SDS011;49573;47.682;9.170;2023-08-20T02:46:37;8.85;;;6.35;;
63444;SDS011;49573;47.682;9.170;2023-08-20T02:49:23;8.63;;;6.57;;
63444;SDS011;49573;47.682;9.170;2023-08-20T02:52:11;8.07;;;6.25;;
63444;SDS011;49573;47.682;9.170;2023-08-20T02:54:57;7.45;;;6.60;;
63444;SDS011;49573;47.682;9.170;2023-08-20T02:57:43;8.07;;;6.43;;
63444;SDS011;49573;47.682;9.170;2023-08-20T03:00:29;8.02;;;6.60;;
63444;SDS011;49573;47.682;9.170;2023-08-20T03:03:15;7.93;;;5.97;;
63444;SDS011;49573;47.682;9.170;2023-08-20T03:06:01;7.20;;;5.80;;
63444;SDS011;49573;47.682;9.170;2023-08-20T03:08:48;8.32;;;5.93;;
63444;SDS011;49573;47.682;9.170;2023-08-20T03:11:34;9.95;;;6.63;;
63444;SDS011;49573;47.682;9.170;2023-08-20T03:14:21;7.53;;;6.18;;
63444;SDS011;49573;47.682;9.170;2023-08-20T03:17:07;8.35;;;6.25;;
63444;SDS011;49573;47.682;9.170;2023-08-20T03:19:53;8.25;;;7.22;;
63444;SDS011;49573;47.682;9.170;2023-08-20T03:22:41;9.55;;;6.72;;
63444;SDS011;49573;47.682;9.170;2023-08-20T03:25:28;9.77;;;6.82;;
63444;SDS011;49573;47.682;9.170;2023-08-20T03:28:15;7.80;;;6.20;;
63444;SDS011;49573;47.682;9.170;2023-08-20T03:31:01;9.35;;;6.50;;
63444;SDS011;49573;47.682;9.170;2023-08-20T03:33:48;9.63;;;6.47;;
63444;SDS011;49573;47.682;9.170;2023-08-20T03:39:20;8.63;;;6.63;;
63444;SDS011;49573;47.682;9.170;2023-08-20T03:42:08;10.82;;;6.40;;
63444;SDS011;49573;47.682;9.170;2023-08-20T03:44:54;10.13;;;6.65;;
63444;SDS011;49573;47.682;9.170;2023-08-20T03:47:40;9.48;;;6.80;;
63444;SDS011;49573;47.682;9.170;2023-08-20T03:50:29;8.18;;;6.32;;
63444;SDS011;49573;47.682;9.170;2023-08-20T03:53:15;13.38;;;7.10;;
63444;SDS011;49573;47.682;9.170;2023-08-20T03:56:01;9.90;;;7.07;;
63444;SDS011;49573;47.682;9.170;2023-08-20T03:58:49;8.32;;;6.30;;
63444;SDS011;49573;47.682;9.170;2023-08-20T04:01:36;9.52;;;6.72;;
63444;SDS011;49573;47.682;9.170;2023-08-20T04:04:22;8.05;;;6.82;;
63444;SDS011;49573;47.682;9.170;2023-08-20T04:07:08;8.18;;;6.60;;
63444;SDS011;49573;47.682;9.170;2023-08-20T04:09:54;10.68;;;6.43;;
63444;SDS011;49573;47.682;9.170;2023-08-20T04:12:40;8.23;;;6.68;;
63444;SDS011;49573;47.682;9.170;2023-08-20T04:15:28;7.18;;;6.18;;
63444;SDS011;49573;47.682;9.170;2023-08-20T04:18:14;7.93;;;6.82;;
63444;SDS011;49573;47.682;9.170;2023-08-20T04:21:00;10.73;;;6.80;;
63444;SDS011;49573;47.682;9.170;2023-08-20T04:23:46;10.88;;;6.65;;
63444;SDS011;49573;47.682;9.170;2023-08-20T04:26:32;8.52;;;6.57;;
63444;SDS011;49573;47.682;9.170;2023-08-20T04:29:18;8.45;;;6.63;;
63444;SDS011;49573;47.682;9.170;2023-08-20T04:32:05;7.07;;;6.38;;
63444;SDS011;49573;47.682;9.170;2023-08-20T04:34:51;8.50;;;6.80;;
63444;SDS011;49573;47.682;9.170;2023-08-20T04:37:39;9.43;;;7.50;;
63444;SDS011;49573;47.682;9.170;2023-08-20T04:40:25;9.85;;;6.82;;
63444;SDS011;49573;47.682;9.170;2023-08-20T04:43:11;8.02;;;6.85;;
63444;SDS011;49573;47.682;9.170;2023-08-20T04:45:57;7.80;;;6.93;;
63444;SDS011;49573;47.682;9.170;2023-08-20T04:48:45;10.05;;;7.30;;
63444;SDS011;49573;47.682;9.170;2023-08-20T04:51:31;10.38;;;6.80;;
63444;SDS011;49573;47.682;9.170;2023-08-20T04:54:17;10.00;;;7.07;;
63444;SDS011;49573;47.682;9.170;2023-08-20T04:57:03;11.13;;;7.00;;
63444;SDS011;49573;47.682;9.170;2023-08-20T04:59:49;10.77;;;6.85;;
63444;SDS011;49573;47.682;9.170;2023-08-20T05:02:35;10.02;;;7.80;;
63444;SDS011;49573;47.682;9.170;2023-08-20T05:05:22;10.02;;;6.90;;
63444;SDS011;49573;47.682;9.170;2023-08-20T05:08:08;10.27;;;7.13;;
63444;SDS011;49573;47.682;9.170;2023-08-20T05:10:54;8.90;;;6.82;;
63444;SDS011;49573;47.682;9.170;2023-08-20T05:13:40;9.57;;;7.60;;
63444;SDS011;49573;47.682;9.170;2023-08-20T05:16:26;10.27;;;7.05;;
63444;SDS011;49573;47.682;9.170;2023-08-20T05:19:13;8.90;;;6.68;;
63444;SDS011;49573;47.682;9.170;2023-08-20T05:22:00;9.57;;;7.75;;
63444;SDS011;49573;47.682;9.170;2023-08-20T05:24:46;8.85;;;7.00;;
63444;SDS011;49573;47.682;9.170;2023-08-20T05:27:33;9.70;;;7.25;;
63444;SDS011;49573;47.682;9.170;2023-08-20T05:30:19;10.77;;;7.28;;
63444;SDS011;49573;47.682;9.170;2023-08-20T05:33:05;9.88;;;7.10;;
63444;SDS011;49573;47.682;9.170;2023-08-20T05:35:51;10.45;;;7.43;;
63444;SDS011;49573;47.682;9.170;2023-08-20T05:38:39;8.82;;;7.75;;
63444;SDS011;49573;47.682;9.170;2023-08-20T05:41:27;10.65;;;7.80;;
63444;SDS011;49573;47.682;9.170;2023-08-20T05:44:13;9.88;;;7.65;;
63444;SDS011;49573;47.682;9.170;2023-08-20T05:46:59;9.80;;;7.20;;
63444;SDS011;49573;47.682;9.170;2023-08-20T05:49:46;9.60;;;7.63;;
63444;SDS011;49573;47.682;9.170;2023-08-20T05:52:32;8.10;;;6.43;;
63444;SDS011;49573;47.682;9.170;2023-08-20T05:55:19;10.95;;;7.47;;
63444;SDS011;49573;47.682;9.170;2023-08-20T05:58:05;8.10;;;7.15;;
63444;SDS011;49573;47.682;9.170;2023-08-20T06:00:51;8.50;;;7.15;;
63444;SDS011;49573;47.682;9.170;2023-08-20T06:03:38;9.45;;;7.13;;
63444;SDS011;49573;47.682;9.170;2023-08-20T06:06:24;10.70;;;7.57;;
63444;SDS011;49573;47.682;9.170;2023-08-20T06:09:10;8.57;;;7.18;;
63444;SDS011;49573;47.682;9.170;2023-08-20T06:11:57;8.00;;;6.53;;
63444;SDS011;49573;47.682;9.170;2023-08-20T06:14:43;7.65;;;6.78;;
63444;SDS011;49573;47.682;9.170;2023-08-20T06:17:29;10.63;;;7.30;;
63444;SDS011;49573;47.682;9.170;2023-08-20T06:20:15;9.48;;;7.07;;
63444;SDS011;49573;47.682;9.170;2023-08-20T06:23:04;8.85;;;6.85;;
63444;SDS011;49573;47.682;9.170;2023-08-20T06:25:50;7.80;;;6.88;;
63444;SDS011;49573;47.682;9.170;2023-08-20T06:28:37;11.18;;;7.55;;
63444;SDS011;49573;47.682;9.170;2023-08-20T06:31:23;9.50;;;7.35;;
63444;SDS011;49573;47.682;9.170;2023-08-20T06:34:09;8.55;;;7.32;;
63444;SDS011;49573;47.682;9.170;2023-08-20T06:36:55;11.68;;;8.02;;
63444;SDS011;49573;47.682;9.170;2023-08-20T06:39:41;9.05;;;7.90;;
63444;SDS011;49573;47.682;9.170;2023-08-20T06:42:28;9.15;;;7.65;;
63444;SDS011;49573;47.682;9.170;2023-08-20T06:45:15;9.25;;;7.70;;
63444;SDS011;49573;47.682;9.170;2023-08-20T06:48:01;9.85;;;7.85;;
63444;SDS011;49573;47.682;9.170;2023-08-20T06:50:47;11.18;;;7.85;;
63444;SDS011;49573;47.682;9.170;2023-08-20T06:53:33;10.52;;;7.45;;
63444;SDS011;49573;47.682;9.170;2023-08-20T06:56:19;10.63;;;7.88;;
63444;SDS011;49573;47.682;9.170;2023-08-20T06:59:05;10.48;;;8.15;;
63444;SDS011;49573;47.682;9.170;2023-08-20T07:01:53;11.75;;;7.68;;
63444;SDS011;49573;47.682;9.170;2023-08-20T07:04:39;10.05;;;8.18;;
63444;SDS011;49573;47.682;9.170;2023-08-20T07:07:25;10.75;;;8.10;;
63444;SDS011;49573;47.682;9.170;2023-08-20T07:10:11;9.15;;;8.00;;
63444;SDS011;49573;47.682;9.170;2023-08-20T07:12:57;12.55;;;8.63;;
63444;SDS011;49573;47.682;9.170;2023-08-20T07:15:43;9.75;;;8.32;;
63444;SDS011;49573;47.682;9.170;2023-08-20T07:18:31;12.30;;;8.45;;
63444;SDS011;49573;47.682;9.170;2023-08-20T07:21:17;9.13;;;8.13;;
63444;SDS011;49573;47.682;9.170;2023-08-20T07:24:03;10.60;;;8.40;;
63444;SDS011;49573;47.682;9.170;2023-08-20T07:29:35;9.52;;;8.52;;
63444;SDS011;49573;47.682;9.170;2023-08-20T07:32:21;10.32;;;8.23;;
63444;SDS011;49573;47.682;9.170;2023-08-20T07:35:09;9.90;;;8.00;;
63444;SDS011;49573;47.682;9.170;2023-08-20T07:37:55;11.18;;;7.90;;
63444;SDS011;49573;47.682;9.170;2023-08-20T07:40:41;14.52;;;8.70;;
63444;SDS011;49573;47.682;9.170;2023-08-20T07:43:27;12.70;;;8.80;;
63444;SDS011;49573;47.682;9.170;2023-08-20T07:46:14;11.32;;;8.85;;
63444;SDS011;49573;47.682;9.170;2023-08-20T07:49:00;11.43;;;8.07;;
63444;SDS011;49573;47.682;9.170;2023-08-20T07:51:48;9.55;;;8.05;;
63444;SDS011;49573;47.682;9.170;2023-08-20T07:54:37;10.68;;;8.27;;
63444;SDS011;49573;47.682;9.170;2023-08-20T07:57:23;12.77;;;8.20;;
63444;SDS011;49573;47.682;9.170;2023-08-20T08:00:10;9.18;;;7.65;;
63444;SDS011;49573;47.682;9.170;2023-08-20T08:02:57;10.40;;;7.95;;
63444;SDS011;49573;47.682;9.170;2023-08-20T08:05:45;9.68;;;7.93;;
63444;SDS011;49573;47.682;9.170;2023-08-20T08:08:33;10.80;;;7.57;;
63444;SDS011;49573;47.682;9.170;2023-08-20T08:11:19;9.15;;;7.70;;
63444;SDS011;49573;47.682;9.170;2023-08-20T08:14:05;9.15;;;8.00;;
63444;SDS011;49573;47.682;9.170;2023-08-20T08:16:51;11.52;;;7.32;;
63444;SDS011;49573;47.682;9.170;2023-08-20T08:19:37;8.63;;;7.75;;
63444;SDS011;49573;47.682;9.170;2023-08-20T08:22:24;11.98;;;7.60;;
63444;SDS011;49573;47.682;9.170;2023-08-20T08:25:11;11.88;;;8.50;;
63444;SDS011;49573;47.682;9.170;2023-08-20T08:27:57;8.90;;;8.00;;
63444;SDS011;49573;47.682;9.170;2023-08-20T08:30:43;9.27;;;7.45;;
63444;SDS011;49573;47.682;9.170;2023-08-20T08:33:29;8.52;;;7.63;;
63444;SDS011;49573;47.682;9.170;2023-08-20T08:36:15;10.52;;;7.60;;
63444;SDS011;49573;47.682;9.170;2023-08-20T08:39:02;10.45;;;8.15;;
63444;SDS011;49573;47.682;9.170;2023-08-20T08:41:50;10.07;;;7.35;;
63444;SDS011;49573;47.682;9.170;2023-08-20T08:44:39;11.52;;;8.05;;
63444;SDS011;49573;47.682;9.170;2023-08-20T08:47:26;9.55;;;7.75;;
63444;SDS011;49573;47.682;9.170;2023-08-20T08:50:13;9.05;;;8.15;;
63444;SDS011;49573;47.682;9.170;2023-08-20T08:52:59;10.43;;;8.00;;
63444;SDS011;49573;47.682;9.170;2023-08-20T08:58:33;11.15;;;8.18;;
63444;SDS011;49573;47.682;9.170;2023-08-20T09:01:19;8.65;;;7.75;;
63444;SDS011;49573;47.682;9.170;2023-08-20T09:04:05;14.65;;;8.32;;
63444;SDS011;49573;47.682;9.170;2023-08-20T09:06:52;11.90;;;8.13;;
63444;SDS011;49573;47.682;9.170;2023-08-20T09:09:41;15.27;;;8.77;;
63444;SDS011;49573;47.682;9.170;2023-08-20T09:12:28;10.75;;;8.40;;
63444;SDS011;49573;47.682;9.170;2023-08-20T09:15:20;11.57;;;8.63;;
63444;SDS011;49573;47.682;9.170;2023-08-20T09:18:09;10.60;;;7.90;;
63444;SDS011;49573;47.682;9.170;2023-08-20T09:20:56;11.88;;;7.90;;
63444;SDS011;49573;47.682;9.170;2023-08-20T09:23:45;10.65;;;7.88;;
63444;SDS011;49573;47.682;9.170;2023-08-20T09:26:32;10.85;;;7.75;;
63444;SDS011;49573;47.682;9.170;2023-08-20T09:32:06;8.80;;;7.85;;
63444;SDS011;49573;47.682;9.170;2023-08-20T09:34:52;9.40;;;7.35;;
63444;SDS011;49573;47.682;9.170;2023-08-20T09:37:39;10.15;;;7.90;;
63444;SDS011;49573;47.682;9.170;2023-08-20T09:40:29;10.02;;;8.07;;
63444;SDS011;49573;47.682;9.170;2023-08-20T09:43:16;9.15;;;7.95;;
63444;SDS011;49573;47.682;9.170;2023-08-20T09:46:02;8.07;;;7.20;;
63444;SDS011;49573;47.682;9.170;2023-08-20T09:48:51;12.32;;;9.25;;
63444;SDS011;49573;47.682;9.170;2023-08-20T09:51:40;8.85;;;7.47;;
63444;SDS011;49573;47.682;9.170;2023-08-20T09:54:28;11.70;;;7.82;;
63444;SDS011;49573;47.682;9.170;2023-08-20T09:57:24;9.43;;;7.65;;
63444;SDS011;49573;47.682;9.170;2023-08-20T10:00:17;9.48;;;7.70;;
63444;SDS011;49573;47.682;9.170;2023-08-20T10:03:03;8.93;;;8.02;;
63444;SDS011;49573;47.682;9.170;2023-08-20T10:08:37;9.30;;;7.30;;
63444;SDS011;49573;47.682;9.170;2023-08-20T10:11:23;9.73;;;8.50;;
63444;SDS011;49573;47.682;9.170;2023-08-20T10:14:09;10.13;;;7.95;;
63444;SDS011;49573;47.682;9.170;2023-08-20T10:16:56;9.27;;;7.47;;
63444;SDS011;49573;47.682;9.170;2023-08-20T10:19:42;12.15;;;7.38;;
63444;SDS011;49573;47.682;9.170;2023-08-20T10:25:24;7.97;;;7.18;;
63444;SDS011;49573;47.682;9.170;2023-08-20T10:28:11;12.38;;;7.45;;
63444;SDS011;49573;47.682;9.170;2023-08-20T10:31:06;10.30;;;8.23;;
63444;SDS011;49573;47.682;9.170;2023-08-20T10:33:54;9.85;;;7.80;;
63444;SDS011;49573;47.682;9.170;2023-08-20T10:36:41;8.07;;;7.28;;
63444;SDS011;49573;47.682;9.170;2023-08-20T10:39:29;11.00;;;7.68;;
63444;SDS011;49573;47.682;9.170;2023-08-20T10:42:27;11.10;;;6.80;;
63444;SDS011;49573;47.682;9.170;2023-08-20T10:45:13;10.82;;;7.78;;
63444;SDS011;49573;47.682;9.170;2023-08-20T10:47:59;12.82;;;7.88;;
63444;SDS011;49573;47.682;9.170;2023-08-20T10:50:45;10.20;;;7.25;;
63444;SDS011;49573;47.682;9.170;2023-08-20T10:53:32;9.82;;;7.30;;
63444;SDS011;49573;47.682;9.170;2023-08-20T10:56:19;9.38;;;7.97;;
63444;SDS011;49573;47.682;9.170;2023-08-20T10:59:06;9.45;;;7.10;;
63444;SDS011;49573;47.682;9.170;2023-08-20T11:01:54;9.70;;;7.28;;
63444;SDS011;49573;47.682;9.170;2023-08-20T11:04:41;10.18;;;6.85;;
63444;SDS011;49573;47.682;9.170;2023-08-20T11:10:16;8.63;;;6.93;;
63444;SDS011;49573;47.682;9.170;2023-08-20T11:13:03;8.45;;;7.18;;
63444;SDS011;49573;47.682;9.170;2023-08-20T11:15:51;11.40;;;7.57;;
63444;SDS011;49573;47.682;9.170;2023-08-20T11:18:37;9.07;;;7.00;;
63444;SDS011;49573;47.682;9.170;2023-08-20T11:21:23;8.20;;;7.30;;
63444;SDS011;49573;47.682;9.170;2023-08-20T11:24:10;12.20;;;6.82;;
63444;SDS011;49573;47.682;9.170;2023-08-20T11:26:57;8.95;;;7.20;;
63444;SDS011;49573;47.682;9.170;2023-08-20T11:32:31;8.68;;;7.28;;
63444;SDS011;49573;47.682;9.170;2023-08-20T11:35:17;10.80;;;7.25;;
63444;SDS011;49573;47.682;9.170;2023-08-20T11:40:49;10.05;;;6.70;;
63444;SDS011;49573;47.682;9.170;2023-08-20T11:43:35;9.70;;;6.75;;
63444;SDS011;49573;47.682;9.170;2023-08-20T11:49:09;8.32;;;6.45;;
63444;SDS011;49573;47.682;9.170;2023-08-20T11:51:57;8.90;;;7.00;;
63444;SDS011;49573;47.682;9.170;2023-08-20T11:57:29;8.70;;;5.97;;
63444;SDS011;49573;47.682;9.170;2023-08-20T12:00:23;11.45;;;6.60;;
63444;SDS011;49573;47.682;9.170;2023-08-20T12:03:13;9.20;;;6.35;;
63444;SDS011;49573;47.682;9.170;2023-08-20T12:05:59;9.82;;;6.15;;
63444;SDS011;49573;47.682;9.170;2023-08-20T12:08:59;9.98;;;6.47;;
63444;SDS011;49573;47.682;9.170;2023-08-20T12:11:48;7.65;;;5.95;;
63444;SDS011;49573;47.682;9.170;2023-08-20T12:14:34;8.88;;;6.10;;
63444;SDS011;49573;47.682;9.170;2023-08-20T12:17:21;7.80;;;5.85;;
63444;SDS011;49573;47.682;9.170;2023-08-20T12:22:58;9.85;;;6.13;;
63444;SDS011;49573;47.682;9.170;2023-08-20T12:25:49;7.57;;;6.20;;
63444;SDS011;49573;47.682;9.170;2023-08-20T12:28:35;7.80;;;6.10;;
63444;SDS011;49573;47.682;9.170;2023-08-20T12:34:07;9.65;;;5.40;;
63444;SDS011;49573;47.682;9.170;2023-08-20T12:36:56;6.72;;;5.65;;
63444;SDS011;49573;47.682;9.170;2023-08-20T12:39:42;10.85;;;5.75;;
63444;SDS011;49573;47.682;9.170;2023-08-20T12:45:14;7.93;;;6.07;;
63444;SDS011;49573;47.682;9.170;2023-08-20T12:48:00;7.13;;;6.00;;
63444;SDS011;49573;47.682;9.170;2023-08-20T12:50:47;10.10;;;6.57;;
63444;SDS011;49573;47.682;9.170;2023-08-20T12:53:34;11.48;;;6.43;;
63444;SDS011;49573;47.682;9.170;2023-08-20T12:56:20;8.85;;;6.13;;
63444;SDS011;49573;47.682;9.170;2023-08-20T12:59:06;8.63;;;6.07;;
63444;SDS011;49573;47.682;9.170;2023-08-20T13:01:53;7.05;;;6.30;;
63444;SDS011;49573;47.682;9.170;2023-08-20T13:04:39;9.38;;;6.88;;
63444;SDS011;49573;47.682;9.170;2023-08-20T13:07:26;8.52;;;6.60;;
63444;SDS011;49573;47.682;9.170;2023-08-20T13:10:14;9.07;;;6.78;;
63444;SDS011;49573;47.682;9.170;2023-08-20T13:13:01;7.40;;;6.10;;
63444;SDS011;49573;47.682;9.170;2023-08-20T13:15:48;8.15;;;6.25;;
63444;SDS011;49573;47.682;9.170;2023-08-20T13:18:34;7.75;;;6.70;;
63444;SDS011;49573;47.682;9.170;2023-08-20T13:21:21;10.60;;;7.10;;
63444;SDS011;49573;47.682;9.170;2023-08-20T13:24:07;9.35;;;6.63;;
63444;SDS011;49573;47.682;9.170;2023-08-20T13:26:55;7.38;;;6.68;;
63444;SDS011;49573;47.682;9.170;2023-08-20T13:29:41;8.68;;;7.18;;
63444;SDS011;49573;47.682;9.170;2023-08-20T13:32:27;8.63;;;7.30;;
63444;SDS011;49573;47.682;9.170;2023-08-20T13:35:13;11.35;;;7.32;;
63444;SDS011;49573;47.682;9.170;2023-08-20T13:38:00;9.48;;;6.10;;
63444;SDS011;49573;47.682;9.170;2023-08-20T13:40:46;9.57;;;6.57;;
63444;SDS011;49573;47.682;9.170;2023-08-20T13:43:33;10.50;;;5.63;;
63444;SDS011;49573;47.682;9.170;2023-08-20T13:46:19;7.35;;;5.90;;
63444;SDS011;49573;47.682;9.170;2023-08-20T13:49:06;8.35;;;5.72;;
63444;SDS011;49573;47.682;9.170;2023-08-20T13:51:52;8.70;;;5.68;;
63444;SDS011;49573;47.682;9.170;2023-08-20T13:54:38;10.50;;;5.50;;
63444;SDS011;49573;47.682;9.170;2023-08-20T13:57:24;7.10;;;5.22;;
63444;SDS011;49573;47.682;9.170;2023-08-20T14:00:12;10.20;;;5.20;;
63444;SDS011;49573;47.682;9.170;2023-08-20T14:02:58;7.10;;;5.28;;
63444;SDS011;49573;47.682;9.170;2023-08-20T14:05:44;6.65;;;4.60;;
63444;SDS011;49573;47.682;9.170;2023-08-20T14:08:32;5.97;;;4.63;;
63444;SDS011;49573;47.682;9.170;2023-08-20T14:11:18;6.00;;;4.47;;
63444;SDS011;49573;47.682;9.170;2023-08-20T14:14:04;8.32;;;4.65;;
63444;SDS011;49573;47.682;9.170;2023-08-20T14:16:51;8.93;;;4.80;;
63444;SDS011;49573;47.682;9.170;2023-08-20T14:19:37;6.78;;;4.38;;
63444;SDS011;49573;47.682;9.170;2023-08-20T14:22:23;7.32;;;4.47;;
63444;SDS011;49573;47.682;9.170;2023-08-20T14:25:09;8.95;;;4.32;;
63444;SDS011;49573;47.682;9.170;2023-08-20T14:27:55;6.78;;;3.92;;
63444;SDS011;49573;47.682;9.170;2023-08-20T14:30:41;7.32;;;4.20;;
63444;SDS011;49573;47.682;9.170;2023-08-20T14:33:29;6.13;;;4.00;;
63444;SDS011;49573;47.682;9.170;2023-08-20T14:36:15;5.53;;;4.10;;
63444;SDS011;49573;47.682;9.170;2023-08-20T14:39:01;6.30;;;4.38;;
63444;SDS011;49573;47.682;9.170;2023-08-20T14:41:48;7.72;;;4.10;;
63444;SDS011;49573;47.682;9.170;2023-08-20T14:44:34;4.82;;;3.95;;
63444;SDS011;49573;47.682;9.170;2023-08-20T14:47:20;9.35;;;4.20;;
63444;SDS011;49573;47.682;9.170;2023-08-20T14:50:08;6.80;;;3.78;;
63444;SDS011;49573;47.682;9.170;2023-08-20T14:52:54;5.50;;;4.18;;
63444;SDS011;49573;47.682;9.170;2023-08-20T14:55:40;6.35;;;3.80;;
63444;SDS011;49573;47.682;9.170;2023-08-20T14:58:26;6.85;;;3.78;;
63444;SDS011;49573;47.682;9.170;2023-08-20T15:01:13;5.78;;;4.00;;
63444;SDS011;49573;47.682;9.170;2023-08-20T15:03:59;4.78;;;3.83;;
63444;SDS011;49573;47.682;9.170;2023-08-20T15:06:46;5.68;;;3.70;;
63444;SDS011;49573;47.682;9.170;2023-08-20T15:09:32;6.10;;;3.80;;
63444;SDS011;49573;47.682;9.170;2023-08-20T15:12:18;6.13;;;3.60;;
63444;SDS011;49573;47.682;9.170;2023-08-20T15:15:05;7.93;;;4.00;;
63444;SDS011;49573;47.682;9.170;2023-08-20T15:17:53;6.30;;;3.58;;
63444;SDS011;49573;47.682;9.170;2023-08-20T15:20:39;5.43;;;3.58;;
63444;SDS011;49573;47.682;9.170;2023-08-20T15:23:27;5.22;;;3.60;;
63444;SDS011;49573;47.682;9.170;2023-08-20T15:26:13;6.47;;;4.10;;
63444;SDS011;49573;47.682;9.170;2023-08-20T15:28:59;6.65;;;4.00;;
63444;SDS011;49573;47.682;9.170;2023-08-20T15:31:45;6.10;;;3.78;;
63444;SDS011;49573;47.682;9.170;2023-08-20T15:34:31;8.45;;;4.22;;
63444;SDS011;49573;47.682;9.170;2023-08-20T15:37:18;4.25;;;3.55;;
63444;SDS011;49573;47.682;9.170;2023-08-20T15:40:06;6.70;;;3.90;;
63444;SDS011;49573;47.682;9.170;2023-08-20T15:42:57;6.85;;;3.60;;
63444;SDS011;49573;47.682;9.170;2023-08-20T15:45:43;7.30;;;4.25;;
63444;SDS011;49573;47.682;9.170;2023-08-20T15:48:30;5.70;;;4.10;;
63444;SDS011;49573;47.682;9.170;2023-08-20T15:51:16;6.57;;;3.88;;
63444;SDS011;49573;47.682;9.170;2023-08-20T15:54:02;7.60;;;3.78;;
63444;SDS011;49573;47.682;9.170;2023-08-20T15:56:50;7.38;;;4.05;;
63444;SDS011;49573;47.682;9.170;2023-08-20T15:59:36;7.88;;;4.03;;
63444;SDS011;49573;47.682;9.170;2023-08-20T16:02:22;6.30;;;4.40;;
63444;SDS011;49573;47.682;9.170;2023-08-20T16:05:08;5.82;;;3.90;;
63444;SDS011;49573;47.682;9.170;2023-08-20T16:07:54;5.30;;;3.83;;
63444;SDS011;49573;47.682;9.170;2023-08-20T16:10:40;7.60;;;4.18;;
63444;SDS011;49573;47.682;9.170;2023-08-20T16:13:28;5.43;;;4.10;;
63444;SDS011;49573;47.682;9.170;2023-08-20T16:16:14;6.65;;;4.05;;
63444;SDS011;49573;47.682;9.170;2023-08-20T16:19:01;6.60;;;4.03;;
63444;SDS011;49573;47.682;9.170;2023-08-20T16:21:47;7.22;;;4.28;;
63444;SDS011;49573;47.682;9.170;2023-08-20T16:24:33;6.03;;;4.40;;
63444;SDS011;49573;47.682;9.170;2023-08-20T16:27:19;10.52;;;4.22;;
63444;SDS011;49573;47.682;9.170;2023-08-20T16:30:07;9.68;;;4.53;;
63444;SDS011;49573;47.682;9.170;2023-08-20T16:32:55;6.55;;;4.30;;
63444;SDS011;49573;47.682;9.170;2023-08-20T16:35:45;7.38;;;4.45;;
63444;SDS011;49573;47.682;9.170;2023-08-20T16:38:31;4.95;;;4.15;;
63444;SDS011;49573;47.682;9.170;2023-08-20T16:41:17;8.40;;;4.32;;
63444;SDS011;49573;47.682;9.170;2023-08-20T16:44:03;5.65;;;4.03;;
63444;SDS011;49573;47.682;9.170;2023-08-20T16:46:50;5.72;;;3.88;;
63444;SDS011;49573;47.682;9.170;2023-08-20T16:49:38;5.95;;;4.38;;
63444;SDS011;49573;47.682;9.170;2023-08-20T16:52:25;5.25;;;4.53;;
63444;SDS011;49573;47.682;9.170;2023-08-20T16:55:11;7.65;;;4.43;;
63444;SDS011;49573;47.682;9.170;2023-08-20T16:57:58;6.80;;;4.43;;
63444;SDS011;49573;47.682;9.170;2023-08-20T17:00:44;6.95;;;4.03;;
63444;SDS011;49573;47.682;9.170;2023-08-20T17:03:31;7.90;;;4.40;;
63444;SDS011;49573;47.682;9.170;2023-08-20T17:06:17;7.90;;;4.55;;
63444;SDS011;49573;47.682;9.170;2023-08-20T17:09:04;7.40;;;4.38;;
63444;SDS011;49573;47.682;9.170;2023-08-20T17:11:50;7.65;;;4.50;;
63444;SDS011;49573;47.682;9.170;2023-08-20T17:14:36;6.80;;;4.47;;
63444;SDS011;49573;47.682;9.170;2023-08-20T17:17:25;10.32;;;4.15;;
63444;SDS011;49573;47.682;9.170;2023-08-20T17:20:14;7.35;;;4.50;;
63444;SDS011;49573;47.682;9.170;2023-08-20T17:23:00;9.93;;;4.72;;
63444;SDS011;49573;47.682;9.170;2023-08-20T17:25:47;8.23;;;4.78;;
63444;SDS011;49573;47.682;9.170;2023-08-20T17:28:33;6.03;;;4.70;;